KCEW/CEW METAR and TAF weather

Enter ICAO airport designator
Station Type Date Time Source
KCEW METAR 2018/12/13 15:53 UTC NOAA

KCEW 131553Z AUTO 04003KT 10SM CLR 12/07 A3014 RMK AO2 SLP203 T01220072


Station Type Date Time Source
KCEW Decoded METAR 2018/12/13 15:53 UTC NOAA

CRESTVIEW SIKES AIRPORT, FL, United States (KCEW) 30-46N 086-31W 55M
Dec 13, 2018 - 10:53 AM EST / 2018.12.13 1553 UTC
Wind: from the NE (040 degrees) at 3 MPH (3 KT):0
Visibility: 10 mile(s):0
Sky conditions: clear
Temperature: 54.0 F (12.2 C)
Dew Point: 45.0 F (7.2 C)
Relative Humidity: 71%
Pressure (altimeter): 30.14 in. Hg (1020 hPa)
ob: KCEW 131553Z AUTO 04003KT 10SM CLR 12/07 A3014 RMK AO2 SLP203 T01220072
cycle: 16

Station Type Date Time Source
KCEW TAF UTC NOAA

Error!


Example: see airport list